Northwest Sanderling — VNVZ — position and weather

sailwx.info

Track history (hours):
 
Tides and Currents Weather Stations Pressure Air Temp Water Temp Dewpoint Dewpoint Depression Visibility Wind Speed Wind Dir Waves Ship Positions

Northwest Sanderling

Last reported at 2016-Jul-27 00:00 UTC. Time now 2016-Jul-29 17:56 UTC.
Position N 02°30' E 126°30'.

Length 272 m; beam 47.2 m; draft 11.4 m.

Type: Ship (hazmat cat A). MMSI: 503000050.

Wind from 230 at 12 knots

Waves 1.0 meters (3 feet), 3 second period

Barometer 1011.1 mb
Air temperature 25.0 ° C
Visibility: greater than 10.8 NM
Dewpoint 25.0 ° C
Water temperature 29.0 ° C

Date/timePositionNaut miles runAvg speedWind from/ knotsBaromVisibWave heightAir tempDewpointWater temp
2016-Jul-27 00:00N 02°30' E 126°30'71714.9 230 / 121011.110.8 1.025.025.029.0
2016-Jul-25 00:00N 14°06' E 129°24'   210 / 61010.010.8 0.529.525.331.3
2016-Jul-21 13:03N 33°31' E 134°51'2214.7
2016-Jul-21 11:33N 33°53' E 134°54'1414.2
2016-Jul-21 10:33N 34°07' E 134°56'1212.2
2016-Jul-21 09:34N 34°19' E 134°59'1111.0
2016-Jul-21 08:34N 34°29' E 135°05'8 7.8
2016-Jul-21 07:33N 34°36' E 135°02'1514.7
2016-Jul-21 06:33N 34°34' E 134°44'12 0.5
2016-Jul-20 07:28N 34°46' E 134°41'0 0.0
2016-Jul-20 06:31N 34°46' E 134°41'4 4.4
2016-Jul-20 05:33N 34°42' E 134°41'9 9.3
2016-Jul-20 04:33N 34°34' E 134°48'1111.0
2016-Jul-20 03:33N 34°37' E 135°01'8 7.9
2016-Jul-20 02:33N 34°33' E 135°09'1312.6
2016-Jul-20 01:33N 34°22' E 135°02'1211.8
2016-Jul-20 00:33N 34°10' E 134°59'1110.5
2016-Jul-19 23:33N 33°60' E 134°59'1413.4
2016-Jul-19 22:31N 33°46' E 134°58'  
Track history (hours):
 
Tides and Currents Weather Stations Pressure Air Temp Water Temp Dewpoint Dewpoint Depression Visibility Wind Speed Wind Dir Waves Ship Positions

Northwest Sanderling

Last reported at 2016-Jul-27 00:00 UTC. Time now 2016-Jul-29 17:56 UTC.
Position N 02°30' E 126°30'.

Length 272 m; beam 47.2 m; draft 11.4 m.

Type: Ship (hazmat cat A). MMSI: 503000050.

Wind from 230 at 12 knots

Waves 1.0 meters (3 feet), 3 second period

Barometer 1011.1 mb
Air temperature 25.0 ° C
Visibility: greater than 10.8 NM
Dewpoint 25.0 ° C
Water temperature 29.0 ° C

Date/timePositionNaut miles runAvg speedWind from/ knotsBaromVisibWave heightAir tempDewpointWater temp
2016-Jul-27 00:00N 02°30' E 126°30'71714.9 230 / 121011.110.8 1.025.025.029.0
2016-Jul-25 00:00N 14°06' E 129°24'   210 / 61010.010.8 0.529.525.331.3
2016-Jul-21 13:03N 33°31' E 134°51'2214.7
2016-Jul-21 11:33N 33°53' E 134°54'1414.2
2016-Jul-21 10:33N 34°07' E 134°56'1212.2
2016-Jul-21 09:34N 34°19' E 134°59'1111.0
2016-Jul-21 08:34N 34°29' E 135°05'8 7.8
2016-Jul-21 07:33N 34°36' E 135°02'1514.7
2016-Jul-21 06:33N 34°34' E 134°44'12 0.5
2016-Jul-20 07:28N 34°46' E 134°41'0 0.0
2016-Jul-20 06:31N 34°46' E 134°41'4 4.4
2016-Jul-20 05:33N 34°42' E 134°41'9 9.3
2016-Jul-20 04:33N 34°34' E 134°48'1111.0
2016-Jul-20 03:33N 34°37' E 135°01'8 7.9
2016-Jul-20 02:33N 34°33' E 135°09'1312.6
2016-Jul-20 01:33N 34°22' E 135°02'1211.8
2016-Jul-20 00:33N 34°10' E 134°59'1110.5
2016-Jul-19 23:33N 33°60' E 134°59'1413.4
2016-Jul-19 22:31N 33°46' E 134°58'  

Dump ship's entire track history